createdAt,value
2023-04-11T00:00:11.925Z,8.99
2023-04-11T00:01:12.874Z,9.01
2023-04-11T00:02:12.016Z,8.98
2023-04-11T00:03:12.177Z,8.98
2023-04-11T00:04:12.032Z,8.98
2023-04-11T00:05:12.080Z,8.98
2023-04-11T00:06:12.080Z,9.08
2023-04-11T00:07:11.867Z,9.01
2023-04-11T00:08:12.086Z,9.01
2023-04-11T00:09:11.873Z,8.98
2023-04-11T00:10:12.069Z,8.98
2023-04-11T00:11:12.121Z,8.99
2023-04-11T00:12:12.193Z,8.99
2023-04-11T00:13:12.223Z,8.96
2023-04-11T00:14:12.320Z,8.99
2023-04-11T00:15:12.013Z,8.99
2023-04-11T00:16:12.340Z,8.98
2023-04-11T00:17:11.793Z,8.95
2023-04-11T00:18:12.100Z,8.95
2023-04-11T00:19:11.948Z,8.98
2023-04-11T00:20:12.556Z,8.98
2023-04-11T00:21:12.177Z,8.96
2023-04-11T00:22:12.349Z,8.98
2023-04-11T00:23:11.862Z,8.93
2023-04-11T00:24:11.977Z,8.92
2023-04-11T00:25:12.705Z,8.93
2023-04-11T00:26:12.601Z,8.90
2023-04-11T00:27:12.579Z,8.89
2023-04-11T00:28:11.816Z,8.86
2023-04-11T00:29:12.529Z,8.89
2023-04-11T00:30:12.739Z,8.89
2023-04-11T00:31:12.020Z,8.90
2023-04-11T00:32:12.076Z,8.92
2023-04-11T00:33:11.796Z,8.90
2023-04-11T00:34:12.601Z,8.89
2023-04-11T00:35:12.488Z,8.89
2023-04-11T00:36:11.889Z,8.89
2023-04-11T00:37:11.651Z,8.85
2023-04-11T00:38:11.648Z,8.85
2023-04-11T00:39:11.694Z,8.83
2023-04-11T00:40:11.762Z,8.83
2023-04-11T00:41:11.620Z,8.81
2023-04-11T00:42:11.636Z,8.88
2023-04-11T00:43:11.769Z,8.89
2023-04-11T00:44:11.861Z,8.88
2023-04-11T00:45:11.741Z,8.89
2023-04-11T00:46:12.121Z,8.92
2023-04-11T00:47:12.061Z,8.86
2023-04-11T00:48:12.150Z,8.85
2023-04-11T00:49:11.627Z,8.85
2023-04-11T00:50:12.032Z,8.86
2023-04-11T00:51:11.560Z,8.90
2023-04-11T00:52:12.356Z,8.89
2023-04-11T00:53:12.420Z,8.93
2023-04-11T00:54:11.639Z,8.95
2023-04-11T00:55:12.097Z,8.96
2023-04-11T00:56:11.623Z,8.98
2023-04-11T00:57:11.870Z,8.96
2023-04-11T00:58:11.515Z,8.98
2023-04-11T00:59:11.516Z,9.01
2023-04-11T01:00:11.499Z,9.06
2023-04-11T01:01:11.664Z,9.08
2023-04-11T01:02:11.595Z,9.06
2023-04-11T01:03:11.836Z,9.03
2023-04-11T01:04:11.847Z,9.09
2023-04-11T01:05:11.769Z,9.12
2023-04-11T01:06:11.832Z,9.12
2023-04-11T01:07:11.427Z,9.16
2023-04-11T01:08:11.576Z,9.16
2023-04-11T01:09:11.894Z,9.19
2023-04-11T01:10:11.951Z,9.23
2023-04-11T01:11:11.401Z,9.26
2023-04-11T01:12:11.385Z,9.27
2023-04-11T01:13:11.499Z,9.29
2023-04-11T01:14:11.429Z,9.33
2023-04-11T01:15:11.499Z,9.34
2023-04-11T01:16:11.562Z,9.37
2023-04-11T01:17:11.527Z,9.45
2023-04-11T01:18:11.634Z,9.47
2023-04-11T01:19:11.682Z,9.47
2023-04-11T01:20:11.725Z,9.45
2023-04-11T01:21:11.381Z,9.48
2023-04-11T01:22:11.825Z,9.48
2023-04-11T01:23:11.609Z,9.52
2023-04-11T01:24:11.915Z,9.51
2023-04-11T01:25:11.977Z,9.51
2023-04-11T01:26:11.299Z,9.50
2023-04-11T01:27:11.331Z,9.47
2023-04-11T01:28:11.296Z,9.50
2023-04-11T01:29:11.340Z,9.52
2023-04-11T01:30:11.290Z,9.57
2023-04-11T01:31:11.400Z,9.55
2023-04-11T01:32:11.259Z,9.59
2023-04-11T01:33:11.284Z,9.60
2023-04-11T01:34:11.295Z,9.62
2023-04-11T01:35:11.342Z,9.55
2023-04-11T01:36:11.369Z,9.55
2023-04-11T01:37:11.335Z,9.55
2023-04-11T01:38:11.212Z,9.55
2023-04-11T01:39:11.360Z,9.57
2023-04-11T01:40:11.371Z,9.57
2023-04-11T01:41:11.311Z,9.57
2023-04-11T01:42:11.404Z,9.55
2023-04-11T01:43:11.178Z,9.60
2023-04-11T01:44:11.226Z,9.62
2023-04-11T01:45:11.381Z,9.66
2023-04-11T01:46:11.443Z,9.69
2023-04-11T01:47:11.192Z,9.69
2023-04-11T01:48:11.253Z,9.75
2023-04-11T01:49:11.257Z,9.75
2023-04-11T01:50:11.143Z,9.80
2023-04-11T01:51:11.352Z,9.84
2023-04-11T01:52:11.110Z,9.84
2023-04-11T01:53:11.124Z,9.84
2023-04-11T01:54:11.139Z,9.87
2023-04-11T01:55:11.147Z,9.90
2023-04-11T01:56:11.162Z,9.87
2023-04-11T01:57:11.108Z,9.85
2023-04-11T01:58:11.128Z,9.84
2023-04-11T01:59:11.129Z,9.85
2023-04-11T02:00:11.106Z,9.87
2023-04-11T02:01:11.402Z,9.88
2023-04-11T02:02:11.339Z,9.88
2023-04-11T02:03:11.377Z,9.87
2023-04-11T02:04:11.450Z,9.87
2023-04-11T02:05:11.176Z,9.87
2023-04-11T02:06:11.304Z,9.85
2023-04-11T02:07:11.313Z,9.83
2023-04-11T02:08:11.328Z,9.84
2023-04-11T02:09:11.336Z,9.83
2023-04-11T02:10:11.358Z,9.81
2023-04-11T02:11:11.291Z,9.78
2023-04-11T02:12:11.160Z,9.72
2023-04-11T02:13:11.408Z,9.72
2023-04-11T02:14:11.435Z,9.69
2023-04-11T02:15:11.171Z,9.73
2023-04-11T02:16:11.004Z,9.72
2023-04-11T02:17:11.349Z,9.69
2023-04-11T02:18:11.448Z,9.70
2023-04-11T02:19:11.116Z,9.66
2023-04-11T02:20:11.211Z,9.65
2023-04-11T02:21:11.292Z,9.63
2023-04-11T02:22:11.327Z,9.67
2023-04-11T02:23:11.126Z,9.72
2023-04-11T02:24:11.291Z,9.72
2023-04-11T02:25:11.154Z,9.72
2023-04-11T02:26:10.864Z,9.69
2023-04-11T02:27:10.869Z,9.69
2023-04-11T02:28:10.957Z,9.70
2023-04-11T02:29:11.037Z,9.65
2023-04-11T02:30:11.041Z,9.62
2023-04-11T02:31:11.304Z,9.59
2023-04-11T02:32:11.030Z,9.59
2023-04-11T02:33:11.184Z,9.62
2023-04-11T02:34:11.274Z,9.57
2023-04-11T02:35:11.028Z,9.59
2023-04-11T02:36:11.359Z,9.57
2023-04-11T02:37:11.174Z,9.54
2023-04-11T02:38:11.101Z,9.55
2023-04-11T02:39:11.471Z,9.57
2023-04-11T02:40:10.969Z,9.55
2023-04-11T02:41:11.239Z,9.48
2023-04-11T02:42:11.600Z,9.48
2023-04-11T02:43:10.757Z,9.48
2023-04-11T02:44:10.767Z,9.47
2023-04-11T02:45:10.759Z,9.50
2023-04-11T02:46:13.387Z,9.50
2023-04-11T02:47:10.892Z,9.51
2023-04-11T02:48:11.333Z,9.50
2023-04-11T02:49:10.707Z,9.48
2023-04-11T02:50:10.819Z,9.45
2023-04-11T02:51:10.695Z,9.42
2023-04-11T02:52:10.687Z,9.45
2023-04-11T02:53:10.678Z,9.48
2023-04-11T02:54:10.705Z,9.50
2023-04-11T02:55:10.787Z,9.45
2023-04-11T02:56:10.783Z,9.44
2023-04-11T02:57:10.763Z,9.42
2023-04-11T02:58:10.786Z,9.41
2023-04-11T02:59:10.634Z,9.45
2023-04-11T03:00:10.809Z,9.44
2023-04-11T03:01:10.825Z,9.50
2023-04-11T03:02:10.977Z,9.50
2023-04-11T03:03:10.857Z,9.47
2023-04-11T03:04:10.654Z,9.47
2023-04-11T03:05:10.661Z,9.50
2023-04-11T03:06:10.625Z,9.54
2023-04-11T03:07:10.743Z,9.52
2023-04-11T03:08:10.801Z,9.59
2023-04-11T03:09:10.825Z,9.66
2023-04-11T03:10:10.927Z,9.65
2023-04-11T03:11:10.844Z,9.63
2023-04-11T03:12:10.964Z,9.60
2023-04-11T03:13:10.536Z,9.60
2023-04-11T03:14:10.546Z,9.62
2023-04-11T03:15:11.002Z,9.60
2023-04-11T03:16:10.569Z,9.60
2023-04-11T03:17:10.542Z,9.62
2023-04-11T03:18:10.528Z,9.55
2023-04-11T03:19:10.514Z,9.52
2023-04-11T03:20:11.069Z,9.50
2023-04-11T03:21:10.611Z,9.48
2023-04-11T03:22:10.582Z,9.50
2023-04-11T03:23:10.472Z,9.45
2023-04-11T03:24:10.474Z,9.48
2023-04-11T03:25:10.628Z,9.50
2023-04-11T03:26:10.638Z,9.50
2023-04-11T03:27:10.652Z,9.51
2023-04-11T03:28:10.586Z,9.52
2023-04-11T03:29:10.685Z,9.48
2023-04-11T03:30:10.688Z,9.47
2023-04-11T03:31:10.565Z,9.51
2023-04-11T03:32:10.678Z,9.50
2023-04-11T03:33:10.734Z,9.48
2023-04-11T03:34:10.771Z,9.48
2023-04-11T03:35:10.764Z,9.50
2023-04-11T03:36:10.640Z,9.48
2023-04-11T03:37:10.741Z,9.47
2023-04-11T03:38:10.576Z,9.44
2023-04-11T03:39:10.800Z,9.42
2023-04-11T03:40:10.656Z,9.40
2023-04-11T03:41:10.366Z,9.40
2023-04-11T03:42:10.427Z,9.42
2023-04-11T03:43:10.569Z,9.41
2023-04-11T03:44:10.356Z,9.40
2023-04-11T03:45:10.346Z,9.37
2023-04-11T03:46:10.374Z,9.34
2023-04-11T03:47:10.346Z,9.30
2023-04-11T03:48:10.380Z,9.32
2023-04-11T03:49:10.390Z,9.30
2023-04-11T03:50:10.449Z,9.26
2023-04-11T03:51:10.308Z,9.24
2023-04-11T03:52:10.377Z,9.30
2023-04-11T03:53:10.317Z,9.30
2023-04-11T03:54:10.670Z,9.29
2023-04-11T03:55:10.711Z,9.26
2023-04-11T03:56:10.546Z,9.22
2023-04-11T03:57:11.784Z,9.23
2023-04-11T03:58:10.848Z,9.12
2023-04-11T03:59:10.895Z,9.12
2023-04-11T04:00:10.249Z,9.09
2023-04-11T04:01:10.373Z,9.08
2023-04-11T04:02:10.323Z,9.14
2023-04-11T04:03:10.396Z,9.15
2023-04-11T04:04:10.633Z,9.12
2023-04-11T04:05:11.000Z,9.12
2023-04-11T04:06:10.189Z,9.09
2023-04-11T04:07:11.104Z,9.08
2023-04-11T04:08:11.008Z,9.09
2023-04-11T04:09:10.173Z,9.09
2023-04-11T04:10:10.912Z,9.12
2023-04-11T04:11:11.620Z,9.14
2023-04-11T04:12:11.239Z,9.15
2023-04-11T04:13:10.492Z,9.14
2023-04-11T04:14:10.959Z,9.11
2023-04-11T04:15:10.622Z,9.11
2023-04-11T04:16:10.165Z,9.12
2023-04-11T04:17:10.127Z,9.12
2023-04-11T04:18:10.231Z,9.15
2023-04-11T04:19:10.223Z,9.15
2023-04-11T04:20:11.593Z,9.12
2023-04-11T04:21:10.338Z,9.14
2023-04-11T04:22:10.155Z,9.11
2023-04-11T04:23:10.139Z,9.14
2023-04-11T04:24:10.185Z,9.12
2023-04-11T04:25:10.250Z,9.15
2023-04-11T04:26:10.302Z,9.11
2023-04-11T04:27:10.331Z,9.11
2023-04-11T04:28:10.337Z,9.09
2023-04-11T04:29:10.428Z,9.14
2023-04-11T04:30:10.192Z,9.09
2023-04-11T04:31:10.135Z,9.11
2023-04-11T04:32:10.130Z,9.12
2023-04-11T04:33:10.186Z,9.12
2023-04-11T04:34:10.888Z,9.12
2023-04-11T04:35:10.974Z,9.11
2023-04-11T04:36:10.303Z,9.12
2023-04-11T04:37:10.493Z,9.12
2023-04-11T04:38:10.686Z,9.12
2023-04-11T04:39:09.963Z,9.08
2023-04-11T04:40:10.003Z,9.09
2023-04-11T04:41:10.052Z,9.11
2023-04-11T04:42:10.095Z,9.11
2023-04-11T04:43:10.130Z,9.08
2023-04-11T04:44:10.182Z,9.08
2023-04-11T04:45:09.923Z,9.09
2023-04-11T04:46:09.981Z,9.11
2023-04-11T04:47:10.021Z,9.08
2023-04-11T04:48:10.428Z,9.12
2023-04-11T04:49:09.882Z,9.15
2023-04-11T04:50:09.983Z,9.15
2023-04-11T04:51:09.960Z,9.18
2023-04-11T04:52:09.951Z,9.16
2023-04-11T04:53:09.924Z,9.14
2023-04-11T04:54:09.867Z,9.12
2023-04-11T04:55:09.906Z,8.98
2023-04-11T04:56:10.020Z,8.98
2023-04-11T04:57:10.048Z,8.96
2023-04-11T04:58:10.070Z,8.92
2023-04-11T04:59:10.115Z,8.88
2023-04-11T05:00:10.166Z,8.88
2023-04-11T05:01:10.221Z,8.86
2023-04-11T05:02:10.320Z,8.80
2023-04-11T05:03:09.895Z,8.81
2023-04-11T05:04:10.381Z,8.81
2023-04-11T05:05:10.382Z,8.85
2023-04-11T05:06:10.462Z,8.85
2023-04-11T05:07:09.772Z,8.86
2023-04-11T05:08:09.874Z,8.89
2023-04-11T05:09:10.608Z,8.92
2023-04-11T05:10:10.656Z,8.92
2023-04-11T05:11:10.317Z,8.95
2023-04-11T05:12:10.625Z,8.96
2023-04-11T05:13:10.293Z,8.98
2023-04-11T05:14:10.557Z,8.99
2023-04-11T05:15:10.192Z,9.04
2023-04-11T05:16:10.386Z,9.04
2023-04-11T05:17:10.222Z,9.08
2023-04-11T05:18:09.761Z,9.06
2023-04-11T05:19:10.603Z,9.11
2023-04-11T05:20:09.806Z,9.09
2023-04-11T05:21:09.913Z,9.09
2023-04-11T05:22:10.084Z,9.03
2023-04-11T05:23:09.741Z,9.03
2023-04-11T05:24:10.638Z,8.98
2023-04-11T05:25:10.010Z,8.86
2023-04-11T05:26:10.085Z,8.75
2023-04-11T05:27:10.270Z,8.63
2023-04-11T05:28:10.502Z,8.53
2023-04-11T05:29:09.603Z,8.49
2023-04-11T05:30:09.622Z,8.46
2023-04-11T05:31:09.631Z,8.47
2023-04-11T05:32:09.620Z,8.47
2023-04-11T05:33:09.691Z,8.44
2023-04-11T05:34:09.610Z,8.44
2023-04-11T05:35:09.747Z,8.42
2023-04-11T05:36:09.903Z,8.46
2023-04-11T05:37:09.854Z,8.47
2023-04-11T05:38:09.560Z,8.52
2023-04-11T05:39:09.546Z,8.56
2023-04-11T05:40:09.568Z,8.60
2023-04-11T05:41:09.565Z,8.59
2023-04-11T05:42:09.572Z,8.63
2023-04-11T05:43:09.598Z,8.68
2023-04-11T05:44:09.599Z,8.62
2023-04-11T05:45:09.613Z,8.65
2023-04-11T05:46:09.648Z,8.63
2023-04-11T05:47:09.648Z,8.60
2023-04-11T05:48:09.682Z,8.59
2023-04-11T05:49:09.669Z,8.59
2023-04-11T05:50:09.675Z,8.57
2023-04-11T05:51:09.689Z,8.59
2023-04-11T05:52:09.649Z,8.63
2023-04-11T05:53:09.708Z,8.68
2023-04-11T05:54:09.450Z,8.74
2023-04-11T05:55:09.748Z,8.80
2023-04-11T05:56:09.764Z,8.83
2023-04-11T05:57:09.737Z,8.88
2023-04-11T05:58:09.775Z,8.96
2023-04-11T05:59:09.784Z,8.98
2023-04-11T06:00:09.804Z,9.06
2023-04-11T06:01:09.382Z,9.14
2023-04-11T06:02:09.497Z,9.14
2023-04-11T06:03:09.551Z,9.19
2023-04-11T06:04:09.559Z,9.23
2023-04-11T06:05:09.448Z,9.36
2023-04-11T06:06:09.378Z,9.51
2023-04-11T06:07:09.435Z,9.63
2023-04-11T06:08:09.427Z,9.67
2023-04-11T06:09:09.328Z,9.73
2023-04-11T06:10:09.337Z,9.75
2023-04-11T06:11:09.341Z,9.63
2023-04-11T06:12:09.358Z,9.41
2023-04-11T06:13:09.300Z,9.27
2023-04-11T06:14:09.299Z,9.14
2023-04-11T06:15:09.385Z,9.06
2023-04-11T06:16:09.461Z,8.92
2023-04-11T06:17:09.432Z,8.89
2023-04-11T06:18:09.280Z,8.81
2023-04-11T06:19:09.247Z,8.75
2023-04-11T06:20:09.311Z,8.65
2023-04-11T06:21:09.477Z,8.53
2023-04-11T06:22:09.491Z,8.23
2023-04-11T06:23:09.513Z,7.88
2023-04-11T06:24:09.228Z,7.68
2023-04-11T06:25:09.248Z,7.47
2023-04-11T06:26:11.292Z,7.40
2023-04-11T06:27:09.206Z,7.33
2023-04-11T06:28:09.198Z,7.37
2023-04-11T06:29:09.196Z,7.37
2023-04-11T06:30:09.213Z,7.36
2023-04-11T06:31:09.251Z,7.40
2023-04-11T06:32:09.344Z,7.42
2023-04-11T06:33:09.225Z,7.52
2023-04-11T06:34:09.361Z,7.61
2023-04-11T06:35:09.341Z,7.66
2023-04-11T06:36:09.412Z,7.69
2023-04-11T06:37:09.483Z,7.87
2023-04-11T06:38:09.498Z,7.94
2023-04-11T06:39:09.227Z,8.04
2023-04-11T06:40:09.235Z,8.14
2023-04-11T06:41:09.114Z,8.17
2023-04-11T06:42:09.192Z,8.24
2023-04-11T06:43:09.241Z,8.38
2023-04-11T06:44:09.277Z,8.50
2023-04-11T06:45:10.165Z,8.52
2023-04-11T06:46:09.449Z,8.59
2023-04-11T06:47:09.177Z,8.68
2023-04-11T06:48:09.554Z,8.75
2023-04-11T06:49:09.240Z,8.81
2023-04-11T06:50:09.147Z,8.88
2023-04-11T06:51:09.842Z,8.93
2023-04-11T06:52:09.604Z,9.03
2023-04-11T06:53:09.734Z,9.11
2023-04-11T06:54:09.636Z,9.19
2023-04-11T06:55:09.510Z,9.19
2023-04-11T06:56:09.142Z,9.22
2023-04-11T06:57:09.747Z,9.16
2023-04-11T06:58:09.662Z,9.04
2023-04-11T06:59:09.056Z,9.01
2023-04-11T07:00:09.232Z,8.93
2023-04-11T07:01:09.032Z,8.88
2023-04-11T07:02:09.092Z,8.77
2023-04-11T07:03:09.470Z,8.70
2023-04-11T07:04:09.013Z,8.65
2023-04-11T07:05:09.009Z,8.65
2023-04-11T07:06:09.023Z,8.60
2023-04-11T07:07:09.037Z,8.60
2023-04-11T07:08:08.922Z,8.65
2023-04-11T07:09:09.064Z,8.60
2023-04-11T07:10:09.020Z,8.55
2023-04-11T07:11:09.098Z,8.53
2023-04-11T07:12:09.103Z,8.52
2023-04-11T07:13:08.896Z,8.46
2023-04-11T07:14:09.135Z,8.44
2023-04-11T07:15:09.008Z,8.41
2023-04-11T07:16:08.906Z,8.35
2023-04-11T07:17:08.884Z,8.34
2023-04-11T07:18:08.981Z,8.32
2023-04-11T07:19:08.870Z,8.31
2023-04-11T07:20:09.049Z,8.32
2023-04-11T07:21:09.109Z,8.31
2023-04-11T07:22:08.902Z,8.29
2023-04-11T07:23:08.904Z,8.29
2023-04-11T07:24:08.911Z,8.28
2023-04-11T07:25:08.846Z,8.26
2023-04-11T07:26:08.798Z,8.29
2023-04-11T07:27:09.026Z,8.31
2023-04-11T07:28:08.780Z,8.35
2023-04-11T07:29:10.988Z,8.41
2023-04-11T07:30:08.796Z,8.53
2023-04-11T07:31:08.780Z,8.67
2023-04-11T07:32:08.766Z,8.72
2023-04-11T07:33:08.827Z,8.85
2023-04-11T07:34:08.748Z,8.92
2023-04-11T07:35:08.830Z,8.99
2023-04-11T07:36:08.830Z,9.04
2023-04-11T07:37:08.877Z,9.16
2023-04-11T07:38:08.894Z,9.24
2023-04-11T07:39:08.714Z,9.27
2023-04-11T07:40:08.718Z,9.37
2023-04-11T07:41:08.940Z,9.47
2023-04-11T07:42:08.937Z,9.59
2023-04-11T07:43:08.685Z,9.62
2023-04-11T07:44:08.681Z,9.66
2023-04-11T07:45:08.760Z,9.70
2023-04-11T07:46:09.068Z,9.80
2023-04-11T07:47:08.654Z,9.84
2023-04-11T07:48:08.670Z,9.91
2023-04-11T07:49:08.665Z,9.93
2023-04-11T07:50:08.656Z,10.03
2023-04-11T07:51:08.685Z,10.17
2023-04-11T07:52:08.712Z,10.30
2023-04-11T07:53:08.756Z,10.26
2023-04-11T07:54:08.807Z,10.34
2023-04-11T07:55:08.859Z,10.36
2023-04-11T07:56:08.909Z,10.30
2023-04-11T07:57:08.960Z,10.41
2023-04-11T07:58:08.999Z,10.55
2023-04-11T07:59:09.058Z,10.78
2023-04-11T08:00:10.940Z,10.93
2023-04-11T08:01:08.555Z,11.03
2023-04-11T08:02:08.885Z,10.82
2023-04-11T08:03:09.427Z,10.70
2023-04-11T08:04:08.718Z,10.55
2023-04-11T08:05:09.299Z,10.46
2023-04-11T08:06:08.545Z,10.38
2023-04-11T08:07:08.995Z,10.30
2023-04-11T08:08:08.963Z,10.21
2023-04-11T08:09:08.589Z,10.08
2023-04-11T08:10:08.517Z,10.09
2023-04-11T08:11:08.593Z,10.02
2023-04-11T08:12:08.631Z,9.93
2023-04-11T08:13:08.691Z,9.94
2023-04-11T08:14:08.755Z,10.05
2023-04-11T08:15:08.682Z,10.17
2023-04-11T08:16:08.573Z,10.28
2023-04-11T08:17:17.629Z,10.38
2023-04-11T08:18:11.938Z,10.45
2023-04-11T08:19:08.429Z,10.31
2023-04-11T08:20:09.068Z,10.49
2023-04-11T08:21:08.674Z,10.64
2023-04-11T08:22:09.159Z,10.79
2023-04-11T08:23:08.478Z,10.68
2023-04-11T08:24:08.400Z,10.79
2023-04-11T08:25:08.459Z,10.87
2023-04-11T08:26:08.437Z,10.90
2023-04-11T08:27:08.507Z,10.97
2023-04-11T08:28:08.536Z,11.04
2023-04-11T08:29:08.591Z,11.03
2023-04-11T08:30:08.671Z,11.22
2023-04-11T08:31:08.767Z,11.15
2023-04-11T08:32:08.747Z,11.08
2023-04-11T08:33:08.542Z,11.11
2023-04-11T08:34:08.681Z,11.11
2023-04-11T08:35:08.679Z,11.20
2023-04-11T08:36:09.029Z,11.30
2023-04-11T08:37:09.011Z,11.43
2023-04-11T08:38:09.048Z,11.48
2023-04-11T08:39:08.988Z,11.66
2023-04-11T08:40:08.425Z,11.49
2023-04-11T08:41:08.578Z,11.25
2023-04-11T08:42:08.929Z,10.97
2023-04-11T08:43:08.864Z,11.00
2023-04-11T08:44:09.087Z,11.11
2023-04-11T08:45:09.253Z,11.30
2023-04-11T08:46:08.932Z,11.25
2023-04-11T08:47:08.585Z,11.28
2023-04-11T08:48:08.303Z,11.34
2023-04-11T08:49:09.125Z,11.46
2023-04-11T08:50:09.282Z,11.43
2023-04-11T08:51:08.596Z,11.27
2023-04-11T08:52:08.824Z,11.37
2023-04-11T08:53:09.245Z,11.58
2023-04-11T08:54:08.222Z,11.49
2023-04-11T08:55:08.424Z,11.46
2023-04-11T08:56:08.784Z,11.46
2023-04-11T08:57:08.566Z,11.46
2023-04-11T08:58:09.021Z,11.61
2023-04-11T08:59:08.161Z,11.71
2023-04-11T09:00:08.171Z,11.70
2023-04-11T09:01:08.179Z,11.73
2023-04-11T09:02:08.261Z,11.88
2023-04-11T09:03:08.325Z,11.89
2023-04-11T09:04:08.137Z,12.00
2023-04-11T09:05:08.435Z,12.21
2023-04-11T09:06:08.374Z,12.29
2023-04-11T09:07:08.154Z,12.21
2023-04-11T09:08:08.430Z,11.97
2023-04-11T09:09:08.483Z,12.07
2023-04-11T09:10:08.438Z,11.99
2023-04-11T09:11:08.579Z,11.97
2023-04-11T09:12:08.632Z,12.23
2023-04-11T09:13:08.775Z,12.18
2023-04-11T09:14:08.062Z,12.15
2023-04-11T09:15:08.422Z,12.08
2023-04-11T09:16:08.165Z,12.13
2023-04-11T09:17:08.047Z,12.21
2023-04-11T09:18:08.202Z,12.22
2023-04-11T09:19:08.226Z,12.11
2023-04-11T09:20:08.184Z,11.80
2023-04-11T09:21:08.870Z,11.70
2023-04-11T09:22:08.818Z,11.67
2023-04-11T09:23:08.212Z,11.59
2023-04-11T09:24:08.011Z,11.56
2023-04-11T09:25:08.359Z,11.40
2023-04-11T09:26:08.716Z,11.23
2023-04-11T09:27:07.963Z,11.15
2023-04-11T09:28:08.267Z,11.03
2023-04-11T09:29:08.004Z,10.97
2023-04-11T09:30:08.500Z,10.91
2023-04-11T09:31:08.953Z,10.86
2023-04-11T09:32:07.920Z,10.86
2023-04-11T09:33:07.979Z,10.87
2023-04-11T09:34:07.916Z,10.95
2023-04-11T09:35:07.930Z,11.05
2023-04-11T09:36:07.959Z,11.19
2023-04-11T09:37:07.973Z,11.52
2023-04-11T09:38:08.044Z,11.73
2023-04-11T09:39:08.073Z,11.70
2023-04-11T09:40:08.119Z,11.85
2023-04-11T09:41:08.189Z,11.91
2023-04-11T09:42:08.226Z,11.91
2023-04-11T09:43:08.260Z,11.89
2023-04-11T09:44:08.014Z,12.00
2023-04-11T09:45:08.356Z,12.40
2023-04-11T09:46:07.897Z,12.62
2023-04-11T09:47:08.458Z,12.66
2023-04-11T09:48:08.528Z,12.41
2023-04-11T09:49:08.308Z,12.17
2023-04-11T09:50:08.437Z,12.04
2023-04-11T09:51:07.786Z,12.07
2023-04-11T09:52:07.806Z,12.10
2023-04-11T09:53:07.801Z,12.07
2023-04-11T09:54:07.817Z,12.05
2023-04-11T09:55:07.822Z,12.17
2023-04-11T09:56:07.828Z,12.29
2023-04-11T09:57:07.840Z,12.25
2023-04-11T09:58:07.854Z,11.99
2023-04-11T09:59:07.886Z,11.87
2023-04-11T10:00:07.759Z,11.87
2023-04-11T10:01:07.846Z,11.84
2023-04-11T10:02:07.924Z,11.73
2023-04-11T10:03:07.867Z,11.74
2023-04-11T10:04:07.702Z,11.76
2023-04-11T10:05:07.867Z,11.79
2023-04-11T10:06:07.992Z,11.93
2023-04-11T10:07:07.986Z,12.00
2023-04-11T10:08:08.050Z,12.04
2023-04-11T10:09:07.738Z,12.08
2023-04-11T10:10:07.743Z,12.13
2023-04-11T10:11:07.652Z,12.33
2023-04-11T10:12:07.712Z,12.28
2023-04-11T10:13:07.750Z,12.38
2023-04-11T10:14:07.788Z,12.53
2023-04-11T10:15:07.912Z,12.90
2023-04-11T10:16:07.627Z,13.11
2023-04-11T10:17:07.966Z,13.14
2023-04-11T10:18:08.001Z,13.19
2023-04-11T10:19:08.081Z,13.24
2023-04-11T10:20:07.608Z,13.20
2023-04-11T10:21:08.169Z,13.14
2023-04-11T10:22:08.160Z,13.17
2023-04-11T10:23:07.992Z,13.09
2023-04-11T10:24:08.113Z,12.84
2023-04-11T10:25:08.201Z,12.71
2023-04-11T10:26:07.920Z,12.81
2023-04-11T10:27:07.755Z,12.96
2023-04-11T10:28:07.675Z,13.05
2023-04-11T10:29:07.511Z,12.88
2023-04-11T10:30:07.690Z,12.87
2023-04-11T10:31:07.561Z,12.76
2023-04-11T10:32:07.515Z,12.65
2023-04-11T10:33:07.531Z,12.61
2023-04-11T10:34:07.528Z,12.48
2023-04-11T10:35:07.477Z,12.35
2023-04-11T10:36:07.612Z,12.32
2023-04-11T10:37:07.585Z,12.40
2023-04-11T10:38:07.581Z,12.46
2023-04-11T10:39:07.499Z,12.55
2023-04-11T10:40:07.611Z,12.73
2023-04-11T10:41:07.590Z,12.73
2023-04-11T10:42:07.629Z,12.58
2023-04-11T10:43:07.677Z,12.48
2023-04-11T10:44:07.409Z,12.47
2023-04-11T10:45:07.431Z,12.58
2023-04-11T10:46:07.403Z,12.71
2023-04-11T10:47:07.458Z,13.08
2023-04-11T10:48:07.581Z,13.43
2023-04-11T10:49:07.377Z,13.86
2023-04-11T10:50:07.389Z,13.96
2023-04-11T10:51:07.542Z,13.68
2023-04-11T10:52:07.608Z,13.71
2023-04-11T10:53:07.650Z,13.86
2023-04-11T10:54:07.691Z,13.91
2023-04-11T10:55:07.381Z,14.11
2023-04-11T10:56:07.317Z,13.68
2023-04-11T10:57:07.310Z,13.71
2023-04-11T10:58:07.853Z,13.75
2023-04-11T10:59:07.611Z,13.35
2023-04-11T11:00:07.902Z,13.21
2023-04-11T11:01:07.300Z,13.55
2023-04-11T11:02:07.396Z,13.47
2023-04-11T11:03:07.417Z,13.54
2023-04-11T11:04:07.742Z,13.64
2023-04-11T11:05:07.320Z,13.76
2023-04-11T11:06:07.257Z,14.21
2023-04-11T11:07:07.236Z,14.61
2023-04-11T11:08:07.228Z,14.85
2023-04-11T11:09:07.212Z,15.15
2023-04-11T11:10:07.300Z,15.07
2023-04-11T11:11:07.200Z,14.74
2023-04-11T11:12:07.252Z,14.11
2023-04-11T11:13:07.274Z,13.83
2023-04-11T11:14:07.288Z,13.57
2023-04-11T11:15:07.313Z,13.80
2023-04-11T11:16:07.231Z,13.97
2023-04-11T11:17:07.275Z,14.09
2023-04-11T11:18:07.363Z,14.23
2023-04-11T11:19:07.349Z,14.40
2023-04-11T11:20:07.358Z,14.78
2023-04-11T11:21:11.255Z,14.67
2023-04-11T11:22:07.520Z,14.55
2023-04-11T11:23:07.138Z,14.64
2023-04-11T11:24:07.118Z,15.07
2023-04-11T11:25:07.199Z,14.59
2023-04-11T11:26:07.225Z,13.96
2023-04-11T11:27:07.250Z,13.63
2023-04-11T11:28:07.342Z,13.82
2023-04-11T11:29:07.366Z,14.27
2023-04-11T11:30:07.169Z,14.00
2023-04-11T11:31:07.460Z,13.98
2023-04-11T11:32:07.601Z,13.40
2023-04-11T11:33:07.088Z,13.63
2023-04-11T11:34:22.107Z,13.67
2023-04-11T11:35:07.551Z,13.47
2023-04-11T11:36:07.032Z,14.05
2023-04-11T11:37:07.014Z,14.49
2023-04-11T11:38:07.019Z,14.64
2023-04-11T11:39:07.022Z,14.70
2023-04-11T11:40:07.022Z,14.90
2023-04-11T11:41:07.047Z,14.18
2023-04-11T11:42:06.983Z,14.15
2023-04-11T11:43:07.059Z,14.52
2023-04-11T11:44:07.092Z,14.15
2023-04-11T11:45:07.092Z,13.73
2023-04-11T11:46:07.395Z,13.49
2023-04-11T11:47:07.016Z,13.42
2023-04-11T11:48:07.172Z,14.08
2023-04-11T11:49:07.172Z,14.31
2023-04-11T11:50:07.169Z,14.55
2023-04-11T11:51:07.039Z,14.74
2023-04-11T11:52:07.110Z,15.01
2023-04-11T11:53:07.198Z,14.63
2023-04-11T11:54:06.908Z,13.86
2023-04-11T11:56:07.237Z,13.13
2023-04-11T11:57:07.024Z,12.95
2023-04-11T11:58:07.103Z,12.90
2023-04-11T11:59:06.863Z,12.84
2023-04-11T12:00:06.894Z,12.88
2023-04-11T12:01:07.019Z,12.96
2023-04-11T12:02:06.943Z,12.99
2023-04-11T12:03:07.209Z,13.02
2023-04-11T12:04:07.092Z,12.88
2023-04-11T12:05:07.215Z,12.63
2023-04-11T12:06:07.080Z,12.55
2023-04-11T12:07:06.860Z,12.54
2023-04-11T12:08:07.179Z,12.55
2023-04-11T12:09:07.223Z,12.69
2023-04-11T12:10:06.927Z,13.11
2023-04-11T12:11:06.822Z,13.60
2023-04-11T12:12:07.031Z,13.94
2023-04-11T12:13:07.447Z,14.26
2023-04-11T12:14:07.173Z,14.33
2023-04-11T12:15:07.499Z,14.44
2023-04-11T12:16:07.051Z,14.45
2023-04-11T12:17:06.754Z,14.64
2023-04-11T12:18:07.578Z,14.70
2023-04-11T12:19:07.397Z,14.78
2023-04-11T12:20:06.767Z,15.01
2023-04-11T12:21:07.584Z,14.99
2023-04-11T12:22:07.494Z,14.90
2023-04-11T12:23:06.999Z,14.99
2023-04-11T12:24:07.185Z,15.01
2023-04-11T12:25:06.786Z,14.99
2023-04-11T12:26:08.140Z,14.95
2023-04-11T12:27:08.531Z,15.15
2023-04-11T12:28:06.918Z,14.83
2023-04-11T12:29:06.777Z,14.44
2023-04-11T12:30:06.935Z,14.38
2023-04-11T12:31:06.675Z,14.66
2023-04-11T12:32:06.701Z,14.82
2023-04-11T12:33:06.796Z,14.56
2023-04-11T12:34:06.644Z,14.48
2023-04-11T12:35:06.668Z,14.58
2023-04-11T12:36:06.897Z,14.53
2023-04-11T12:37:06.666Z,14.56
2023-04-11T12:38:06.594Z,14.67
2023-04-11T12:39:06.584Z,14.64
2023-04-11T12:40:06.637Z,14.83
2023-04-11T12:41:30.318Z,15.05
2023-04-11T12:42:06.642Z,15.14
2023-04-11T12:43:06.712Z,14.77
2023-04-11T12:44:06.563Z,14.85
2023-04-11T12:45:06.836Z,15.01
2023-04-11T12:46:06.671Z,15.04
2023-04-11T12:47:06.729Z,14.71
2023-04-11T12:48:06.663Z,14.78
2023-04-11T12:49:06.666Z,15.01
2023-04-11T12:50:06.644Z,15.40
2023-04-11T12:51:06.648Z,15.62
2023-04-11T12:52:06.656Z,15.44
2023-04-11T12:53:06.654Z,15.35
2023-04-11T12:54:06.507Z,15.26
2023-04-11T12:55:06.673Z,15.43
2023-04-11T12:56:06.713Z,15.32
2023-04-11T12:57:06.731Z,15.20
2023-04-11T12:58:07.279Z,15.40
2023-04-11T12:59:06.717Z,15.25
2023-04-11T13:00:06.929Z,15.19
2023-04-11T13:01:06.936Z,15.26
2023-04-11T13:02:06.539Z,15.19
2023-04-11T13:03:06.655Z,15.03
2023-04-11T13:04:06.568Z,15.03
2023-04-11T13:05:06.822Z,14.89
2023-04-11T13:06:06.542Z,15.05
2023-04-11T13:07:07.587Z,14.99
2023-04-11T13:08:06.462Z,15.22